Kezdőlap
METAR-TAF:

METAR-TAF

Repülőterek :

Kirksville Regional Airport

Kirksville, Missouri, Amerikai Egyesült Államok

földrajzi szélesség: 40-05-50N, földrajzi hosszúság: 092-32-36W, magasság: 294 m

Jelenlegi meteorológiai megfigyelések

A jelentés 48 perccel ezelõtt készült, 16:55 UTC
Dél-délkeleti szél 6 kt
Hőmérséklet 28°C
Páratartalom 70%
Légköri nyomás 1018 hPa
Látótávolság: 16.1 km
Kevés felhő 2100 lábon

METAR: KIRK 131655Z AUTO 15006KT 10SM FEW021 28/22 A3007 RMK AO2 SLP177 T02830222

Idő: 12:43 (17:43 UTC)


TAF: hiányzik

Meteorológiai megfigyelések és előrejelzések több, mint 4000 repülőtéren (METAR és TAF jelentéseket).

A térképen piros és sárga pontok jelzik az elérhető meteorológiai állomásokat.

Mozgassa az egeret a pont fölött, hogy megjelenjen az állomás neve.

Azután kattintson az időjárási megfigyelések és előrejelzések megtekintéséhez.

A térkép megváltoztatása: kattintson a fekete keresztel jelölt zöld gombra ráközelítéshez, a vonallal jelölt zöld gombra távolításhoz, vagy a zöld nyilakra a szomszédos térképek eléréséhez.


METAR-TAF: